createdAt,value
2018-08-18T06:18:10.109Z,5.50
2018-08-18T06:19:09.970Z,20.60
2018-08-18T06:20:09.574Z,20.50
2018-08-18T06:21:09.491Z,20.90
2018-08-18T06:22:09.484Z,22.20
2018-08-18T06:23:09.434Z,18.80
2018-08-18T06:24:09.387Z,23.70
2018-08-18T06:25:09.621Z,19.00
2018-08-18T06:26:09.359Z,20.60
2018-08-18T06:27:09.404Z,20.50
2018-08-18T06:28:09.459Z,21.90
2018-08-18T06:29:09.472Z,21.30
2018-08-18T06:30:10.291Z,22.70
2018-08-18T06:31:09.433Z,23.20
2018-08-18T06:32:09.301Z,22.30
2018-08-18T06:33:09.505Z,22.60
2018-08-18T06:34:09.363Z,22.00
2018-08-18T06:35:09.318Z,22.10
2018-08-18T06:36:09.424Z,21.20
2018-08-18T06:37:09.298Z,19.60
2018-08-18T06:38:09.250Z,23.40
2018-08-18T06:39:09.246Z,20.60
2018-08-18T06:40:09.228Z,24.50
2018-08-18T06:41:09.337Z,20.00
2018-08-18T06:42:09.182Z,25.10
2018-08-18T06:43:09.258Z,26.40
2018-08-18T06:44:09.151Z,23.40
2018-08-18T06:45:09.200Z,22.10
2018-08-18T06:46:09.205Z,23.20
2018-08-18T06:47:09.742Z,25.50
2018-08-18T06:48:09.113Z,24.20
2018-08-18T06:49:09.110Z,23.30
2018-08-18T06:50:09.091Z,26.60
2018-08-18T06:51:09.121Z,25.40
2018-08-18T06:52:09.095Z,25.90
2018-08-18T06:53:09.059Z,29.00
2018-08-18T06:54:09.116Z,27.20
2018-08-18T06:55:09.265Z,27.50
2018-08-18T06:56:09.786Z,25.50
2018-08-18T06:57:09.207Z,25.90
2018-08-18T06:58:09.013Z,23.70
2018-08-18T07:05:09.036Z,24.60
2018-08-18T07:06:08.949Z,26.30
2018-08-18T07:07:09.864Z,28.90
2018-08-18T07:18:09.675Z,23.40
2018-08-18T07:34:13.446Z,26.90
2018-08-18T07:35:13.120Z,17.30
2018-08-18T07:36:13.356Z,21.30
2018-08-18T07:37:14.730Z,19.60
2018-08-18T07:38:14.009Z,17.80
2018-08-18T07:39:13.029Z,21.40
2018-08-18T07:40:12.907Z,21.70
2018-08-18T07:41:13.032Z,20.80
2018-08-18T07:42:12.930Z,16.80
2018-08-18T07:43:13.055Z,19.10
2018-08-18T07:44:12.937Z,18.60
2018-08-18T07:45:12.941Z,22.00
2018-08-18T07:46:12.874Z,20.80
2018-08-18T07:47:12.835Z,18.80
2018-08-18T07:48:13.019Z,17.40
2018-08-18T07:50:34.561Z,17.00
2018-08-18T07:54:34.615Z,25.60
2018-08-18T07:55:34.094Z,21.00
2018-08-18T07:56:34.390Z,20.50
2018-08-18T07:57:34.082Z,19.20
2018-08-18T07:58:34.079Z,19.80
2018-08-18T07:59:34.118Z,21.20
2018-08-18T08:00:33.878Z,22.90
2018-08-18T08:01:33.946Z,20.20
2018-08-18T08:02:33.963Z,20.80
2018-08-18T08:03:33.884Z,20.70
2018-08-18T08:04:33.861Z,18.40
2018-08-18T08:05:33.942Z,20.20
2018-08-18T08:06:33.946Z,18.90
2018-08-18T08:07:33.841Z,18.50
2018-08-18T08:08:33.841Z,21.20
2018-08-18T08:09:33.848Z,18.30
2018-08-18T08:10:33.826Z,21.80
2018-08-18T08:11:33.761Z,19.30
2018-08-18T08:12:33.929Z,18.20
2018-08-18T08:13:33.748Z,20.00
2018-08-18T08:14:33.744Z,18.50
2018-08-18T08:15:33.755Z,16.80
2018-08-18T08:16:33.873Z,18.40
2018-08-18T08:17:33.732Z,19.50
2018-08-18T08:18:33.729Z,20.10
2018-08-18T08:19:33.832Z,18.80
2018-08-18T08:20:33.876Z,19.60
2018-08-18T08:21:33.696Z,18.20
2018-08-18T08:22:33.794Z,18.30
2018-08-18T08:23:33.673Z,16.00
2018-08-18T08:24:33.758Z,18.00
2018-08-18T08:25:33.745Z,17.90
2018-08-18T08:26:34.346Z,15.70
2018-08-18T08:27:33.853Z,15.30
2018-08-18T08:28:34.012Z,16.90
2018-08-18T08:29:34.684Z,17.00
2018-08-18T08:30:33.567Z,17.60
2018-08-18T08:31:33.676Z,16.70
2018-08-18T08:32:33.712Z,15.00
2018-08-18T08:33:33.584Z,17.70
2018-08-18T08:34:33.580Z,16.30
2018-08-18T08:35:33.774Z,16.30
2018-08-18T08:36:33.654Z,17.00
2018-08-18T08:37:33.648Z,14.00
2018-08-18T08:38:36.344Z,13.20
2018-08-18T08:39:33.622Z,11.20
2018-08-18T08:40:33.466Z,14.10
2018-08-18T08:41:33.663Z,13.50
2018-08-18T08:44:07.458Z,10.80
2018-08-18T08:45:06.980Z,11.30
2018-08-18T08:46:07.601Z,12.00
2018-08-18T08:47:07.166Z,12.40
2018-08-18T08:48:06.887Z,11.00
2018-08-18T08:49:06.889Z,13.60
2018-08-18T08:50:06.870Z,9.90
2018-08-18T08:51:06.951Z,12.30
2018-08-18T08:52:06.784Z,9.70
2018-08-18T08:53:06.887Z,9.90
2018-08-18T08:54:06.800Z,10.70
2018-08-18T08:55:06.823Z,13.20
2018-08-18T08:56:08.788Z,13.60
2018-08-18T08:57:06.766Z,11.00
2018-08-18T08:58:06.779Z,8.60
2018-08-18T08:59:06.743Z,9.60
2018-08-18T09:00:09.674Z,7.20
2018-08-18T09:01:21.934Z,8.90
2018-08-18T09:02:06.911Z,7.90
2018-08-18T09:03:06.841Z,11.00
2018-08-18T09:04:15.625Z,8.70
2018-08-18T09:05:07.330Z,9.40
2018-08-18T09:06:07.342Z,12.90
2018-08-18T09:07:08.366Z,9.20
2018-08-18T09:08:06.790Z,9.50
2018-08-18T09:09:06.688Z,10.10
2018-08-18T09:10:06.708Z,8.80
2018-08-18T09:11:06.600Z,9.80
2018-08-18T09:12:06.701Z,9.60
2018-08-18T09:13:06.627Z,9.30
2018-08-18T09:14:08.276Z,8.20
2018-08-18T09:15:06.843Z,11.10
2018-08-18T09:16:06.626Z,10.70
2018-08-18T09:17:08.747Z,9.00
2018-08-18T09:18:06.559Z,9.60
2018-08-18T09:19:06.643Z,7.50
2018-08-18T09:20:06.508Z,9.10
2018-08-18T09:21:06.869Z,7.50
2018-08-18T09:22:06.524Z,8.10
2018-08-18T09:23:07.370Z,6.90
2018-08-18T09:24:06.480Z,7.50
2018-08-18T09:25:06.465Z,9.20
2018-08-18T09:26:06.605Z,7.80
2018-08-18T09:27:06.579Z,8.90
2018-08-18T09:28:06.564Z,8.10
2018-08-18T09:29:06.456Z,7.20
2018-08-18T09:30:06.418Z,7.60
2018-08-18T09:31:06.448Z,7.50
2018-08-18T09:32:06.445Z,8.80
2018-08-18T09:33:06.518Z,8.70
2018-08-18T09:34:06.813Z,8.80
2018-08-18T09:35:06.555Z,8.00
2018-08-18T09:36:06.542Z,10.10
2018-08-18T09:37:06.385Z,8.00
2018-08-18T09:38:06.367Z,8.70
2018-08-18T09:39:06.353Z,8.50
2018-08-18T09:40:06.580Z,9.00
2018-08-18T09:41:06.402Z,8.90
2018-08-18T09:42:09.300Z,10.10
2018-08-18T09:43:06.294Z,8.50
2018-08-18T09:44:08.365Z,7.60
2018-08-18T09:45:09.321Z,10.70
2018-08-18T09:46:06.255Z,8.40
2018-08-18T09:47:06.341Z,8.80
2018-08-18T09:48:06.334Z,8.90
2018-08-18T09:49:06.428Z,9.90
2018-08-18T09:50:06.271Z,9.30
2018-08-18T09:51:06.337Z,9.20
2018-08-18T09:52:06.316Z,7.40
2018-08-18T09:53:06.201Z,6.20
2018-08-18T09:54:06.315Z,10.70
2018-08-18T09:55:16.903Z,6.10
2018-08-18T09:56:06.216Z,7.20
2018-08-18T09:57:06.188Z,6.20
2018-08-18T09:58:06.437Z,7.50
2018-08-18T09:59:06.219Z,7.70
2018-08-18T10:00:06.933Z,7.30
2018-08-18T10:01:06.325Z,9.20
2018-08-18T10:02:06.268Z,8.00
2018-08-18T10:03:06.141Z,5.40
2018-08-18T10:04:15.389Z,7.80
2018-08-18T10:11:37.578Z,6.30
2018-08-18T10:12:40.993Z,7.00
2018-08-18T10:13:37.573Z,7.50
2018-08-18T10:14:37.342Z,9.60
2018-08-18T10:15:37.960Z,6.40
2018-08-18T10:16:37.269Z,7.10
2018-08-18T10:17:37.275Z,6.90
2018-08-18T10:18:37.473Z,6.50
2018-08-18T10:19:37.315Z,8.00
2018-08-18T10:20:37.523Z,8.40
2018-08-18T10:21:37.247Z,6.00
2018-08-18T10:22:37.370Z,5.40
2018-08-18T10:23:37.399Z,4.70
2018-08-18T10:24:37.765Z,6.70
2018-08-18T10:35:59.434Z,4.80
2018-08-18T10:36:59.062Z,6.20
2018-08-18T10:38:04.313Z,7.40
2018-08-18T10:38:59.532Z,6.40
2018-08-18T10:44:36.676Z,8.20
2018-08-18T10:45:36.275Z,6.70
2018-08-18T10:46:36.651Z,4.50
2018-08-18T10:47:36.231Z,8.70
2018-08-18T10:48:35.860Z,7.70
2018-08-18T10:49:35.970Z,6.40
2018-08-18T10:50:35.748Z,8.30
2018-08-18T10:51:35.750Z,5.90
2018-08-18T10:52:35.799Z,7.80
2018-08-18T10:53:36.111Z,6.20
2018-08-18T10:54:35.710Z,4.10
2018-08-18T10:55:35.855Z,7.00
2018-08-18T10:56:37.444Z,5.90
2018-08-18T11:17:32.620Z,2.30
2018-08-18T11:18:33.380Z,6.40
2018-08-18T11:19:32.525Z,4.20
2018-08-18T11:20:32.464Z,6.50
2018-08-18T11:21:32.457Z,4.00
2018-08-18T11:26:48.236Z,8.60
2018-08-18T11:27:47.009Z,5.90
2018-08-18T11:28:47.290Z,6.60
2018-08-18T11:29:47.640Z,5.80
2018-08-18T11:30:46.803Z,4.20
2018-08-18T11:31:46.818Z,4.30
2018-08-18T11:32:46.923Z,5.20
2018-08-18T11:33:46.851Z,6.60
2018-08-18T11:34:46.852Z,6.40
2018-08-18T11:35:46.702Z,6.50
2018-08-18T11:36:46.810Z,4.20
2018-08-18T11:37:46.778Z,6.10
2018-08-18T11:38:46.771Z,5.50
2018-08-18T11:39:46.738Z,7.90
2018-08-18T11:40:46.799Z,7.10
2018-08-18T11:41:46.647Z,5.60
2018-08-18T11:44:48.880Z,4.80
2018-08-18T11:45:48.237Z,6.00
2018-08-18T11:46:50.294Z,6.90
2018-08-18T11:47:48.367Z,7.00
2018-08-18T11:48:48.148Z,4.80
2018-08-18T11:49:48.906Z,7.10
2018-08-18T11:50:49.765Z,6.60
2018-08-18T11:54:08.251Z,5.70
2018-08-18T11:55:08.332Z,7.10
2018-08-18T11:56:07.814Z,5.00
2018-08-18T11:57:07.920Z,6.10
2018-08-18T11:58:07.725Z,4.70
2018-08-18T11:59:08.732Z,6.40
2018-08-18T12:00:07.809Z,6.70
2018-08-18T12:01:07.953Z,6.00
2018-08-18T12:02:07.806Z,5.80
2018-08-18T12:03:07.828Z,6.40
2018-08-18T12:04:07.796Z,5.90
2018-08-18T12:05:07.696Z,5.20
2018-08-18T12:06:07.734Z,4.80
2018-08-18T12:07:08.882Z,5.50
2018-08-18T12:08:07.723Z,6.60
2018-08-18T12:09:07.638Z,5.30
2018-08-18T12:10:07.616Z,5.80
2018-08-18T12:11:07.768Z,5.20
2018-08-18T12:12:07.705Z,6.80
2018-08-18T12:13:07.600Z,5.80
2018-08-18T12:14:07.576Z,5.60
2018-08-18T12:15:07.591Z,6.80
2018-08-18T12:16:07.647Z,5.40
2018-08-18T12:17:07.571Z,4.90
2018-08-18T12:18:07.542Z,5.80
2018-08-18T12:19:07.523Z,6.90
2018-08-18T12:20:07.582Z,7.20
2018-08-18T12:21:07.513Z,5.20
2018-08-18T12:22:07.523Z,6.00
2018-08-18T12:23:07.578Z,5.50
2018-08-18T12:24:07.513Z,5.10
2018-08-18T12:25:07.630Z,5.60
2018-08-18T12:26:07.498Z,4.50
2018-08-18T12:27:12.737Z,5.90
2018-08-18T14:20:37.253Z,8.90
2018-08-18T14:31:44.059Z,5.80
2018-08-18T14:32:46.824Z,5.80
2018-08-18T14:33:50.539Z,7.50
2018-08-18T15:25:46.272Z,6.70
2018-08-18T15:31:57.526Z,2.30
2018-08-18T15:41:37.367Z,2.80
